createdAt,value
2019-02-03T00:02:11.837Z,3.40
2019-02-03T00:04:37.941Z,3.40
2019-02-03T00:07:04.027Z,3.40
2019-02-03T00:09:30.123Z,3.50
2019-02-03T00:11:56.203Z,3.40
2019-02-03T00:14:22.342Z,3.40
2019-02-03T00:16:48.555Z,3.30
2019-02-03T00:19:14.943Z,3.40
2019-02-03T00:21:41.188Z,3.40
2019-02-03T00:24:07.612Z,3.40
2019-02-03T00:26:34.077Z,3.40
2019-02-03T00:29:00.309Z,3.40
2019-02-03T00:31:26.500Z,3.40
2019-02-03T00:33:52.587Z,3.50
2019-02-03T00:36:19.089Z,3.50
2019-02-03T00:38:45.165Z,3.40
2019-02-03T00:41:11.494Z,3.30
2019-02-03T00:43:37.727Z,3.40
2019-02-03T00:46:04.363Z,3.40
2019-02-03T00:48:30.614Z,3.40
2019-02-03T00:50:57.051Z,3.50
2019-02-03T00:53:23.588Z,3.40
2019-02-03T00:55:49.791Z,3.40
2019-02-03T00:58:15.996Z,3.50
2019-02-03T01:00:42.325Z,3.50
2019-02-03T01:03:08.730Z,3.40
2019-02-03T01:05:35.165Z,3.30
2019-02-03T01:08:01.811Z,3.40
2019-02-03T01:10:28.496Z,3.40
2019-02-03T01:12:54.873Z,3.50
2019-02-03T01:15:21.040Z,3.60
2019-02-03T01:17:47.255Z,3.60
2019-02-03T01:20:16.607Z,3.50
2019-02-03T01:22:42.888Z,3.50
2019-02-03T01:25:11.946Z,3.50
2019-02-03T01:27:38.258Z,3.50
2019-02-03T01:30:08.270Z,3.50
2019-02-03T01:32:34.398Z,3.60
2019-02-03T01:35:00.735Z,3.60
2019-02-03T01:37:38.916Z,3.60
2019-02-03T01:39:54.968Z,3.50
2019-02-03T01:42:21.562Z,3.50
2019-02-03T01:44:47.722Z,3.50
2019-02-03T01:47:13.882Z,3.50
2019-02-03T01:49:40.105Z,3.50
2019-02-03T01:52:06.483Z,3.50
2019-02-03T01:54:32.553Z,3.50
2019-02-03T01:56:58.701Z,3.40
2019-02-03T01:59:25.072Z,3.40
2019-02-03T02:01:51.165Z,3.40
2019-02-03T02:04:17.252Z,3.40
2019-02-03T02:06:43.473Z,3.40
2019-02-03T02:09:09.652Z,3.40
2019-02-03T02:11:35.908Z,3.40
2019-02-03T02:14:02.674Z,3.40
2019-02-03T02:16:28.752Z,3.50
2019-02-03T02:18:55.186Z,3.50
2019-02-03T02:21:21.414Z,3.50
2019-02-03T02:23:47.642Z,3.50
2019-02-03T02:26:13.770Z,3.40
2019-02-03T02:28:39.937Z,3.50
2019-02-03T02:31:06.146Z,3.40
2019-02-03T02:33:32.592Z,3.50
2019-02-03T02:35:58.922Z,3.50
2019-02-03T02:38:25.096Z,3.40
2019-02-03T02:40:51.177Z,3.40
2019-02-03T02:43:17.287Z,3.50
2019-02-03T02:45:43.513Z,3.50
2019-02-03T02:48:09.828Z,3.40
2019-02-03T02:50:38.918Z,3.40
2019-02-03T02:53:05.020Z,3.50
2019-02-03T02:55:31.529Z,3.50
2019-02-03T02:57:57.600Z,3.50
2019-02-03T03:00:24.725Z,3.40
2019-02-03T03:02:51.355Z,3.40
2019-02-03T03:05:17.694Z,3.40
2019-02-03T03:07:43.825Z,3.40
2019-02-03T03:10:12.741Z,3.50
2019-02-03T03:12:39.175Z,3.40
2019-02-03T03:15:09.171Z,3.40
2019-02-03T03:17:35.359Z,3.40
2019-02-03T03:20:01.950Z,3.40
2019-02-03T03:22:28.177Z,3.40
2019-02-03T03:24:54.359Z,3.40
2019-02-03T03:27:20.512Z,3.40
2019-02-03T03:29:46.681Z,3.40
2019-02-03T03:32:12.802Z,3.40
2019-02-03T03:34:39.074Z,3.40
2019-02-03T03:37:05.259Z,3.40
2019-02-03T03:39:31.382Z,3.40
2019-02-03T03:41:57.563Z,3.40
2019-02-03T03:44:23.653Z,3.50
2019-02-03T03:46:50.193Z,3.50
2019-02-03T03:49:16.379Z,3.50
2019-02-03T03:51:42.514Z,3.40
2019-02-03T03:54:08.855Z,3.40
2019-02-03T03:56:35.026Z,3.30
2019-02-03T03:59:01.276Z,3.30
2019-02-03T04:01:27.561Z,3.30
2019-02-03T04:03:54.257Z,3.30
2019-02-03T04:06:20.395Z,3.40
2019-02-03T04:08:46.673Z,3.40
2019-02-03T04:11:12.938Z,3.40
2019-02-03T04:13:39.144Z,3.20
2019-02-03T04:16:05.437Z,3.30
2019-02-03T04:18:31.560Z,3.40
2019-02-03T04:20:57.762Z,3.30
2019-02-03T04:23:24.139Z,3.30
2019-02-03T04:25:52.399Z,3.30
2019-02-03T04:28:18.622Z,3.30
2019-02-03T04:30:44.837Z,3.30
2019-02-03T04:33:11.072Z,3.30
2019-02-03T04:35:37.250Z,3.30
2019-02-03T04:38:03.673Z,3.30
2019-02-03T04:40:30.373Z,3.40
2019-02-03T04:42:56.514Z,3.30
2019-02-03T04:45:23.027Z,3.30
2019-02-03T04:47:49.315Z,3.30
2019-02-03T04:50:17.407Z,3.20
2019-02-03T04:52:43.840Z,3.20
2019-02-03T04:55:15.629Z,3.30
2019-02-03T04:57:41.845Z,3.20
2019-02-03T05:00:16.620Z,3.20
2019-02-03T05:02:42.856Z,3.20
2019-02-03T05:05:09.356Z,3.20
2019-02-03T05:07:35.437Z,3.20
2019-02-03T05:10:01.782Z,3.10
2019-02-03T05:12:28.524Z,3.10
2019-02-03T05:14:54.642Z,3.10
2019-02-03T05:17:20.864Z,3.10
2019-02-03T05:19:47.046Z,3.10
2019-02-03T05:22:13.163Z,3.00
2019-02-03T05:24:39.291Z,3.10
2019-02-03T05:27:05.529Z,3.00
2019-02-03T05:29:32.176Z,3.10
2019-02-03T05:31:58.400Z,3.10
2019-02-03T05:34:24.639Z,3.10
2019-02-03T05:36:50.865Z,3.10
2019-02-03T05:39:25.261Z,3.10
2019-02-03T05:41:45.112Z,3.10
2019-02-03T05:44:11.330Z,3.10
2019-02-03T05:46:37.544Z,3.10
2019-02-03T05:49:03.728Z,3.10
2019-02-03T05:51:29.818Z,3.20
2019-02-03T05:53:55.903Z,3.20
2019-02-03T05:56:22.037Z,3.00
2019-02-03T05:58:48.142Z,3.10
2019-02-03T06:01:14.219Z,3.10
2019-02-03T06:03:40.456Z,3.00
2019-02-03T06:06:07.181Z,3.00
2019-02-03T06:08:33.365Z,2.90
2019-02-03T06:10:59.439Z,2.90
2019-02-03T06:13:25.752Z,2.80
2019-02-03T06:15:51.912Z,2.80
2019-02-03T06:18:18.146Z,2.90
2019-02-03T06:20:44.348Z,2.90
2019-02-03T06:23:10.436Z,2.80
2019-02-03T06:25:36.584Z,2.90
2019-02-03T06:28:03.257Z,2.90
2019-02-03T06:30:33.171Z,2.90
2019-02-03T06:32:59.410Z,2.90
2019-02-03T06:35:25.601Z,2.80
2019-02-03T06:37:51.816Z,2.90
2019-02-03T06:40:18.454Z,2.90
2019-02-03T06:42:44.646Z,2.90
2019-02-03T06:45:24.955Z,2.80
2019-02-03T06:47:51.151Z,2.90
2019-02-03T06:50:17.250Z,2.90
2019-02-03T06:52:43.392Z,2.90
2019-02-03T06:55:10.130Z,2.90
2019-02-03T06:57:36.322Z,2.90
2019-02-03T07:00:11.457Z,2.80
2019-02-03T07:02:37.562Z,2.80
2019-02-03T07:05:05.188Z,2.80
2019-02-03T07:07:31.290Z,2.80
2019-02-03T07:10:01.037Z,2.80
2019-02-03T07:12:25.438Z,2.80
2019-02-03T07:14:51.526Z,2.80
2019-02-03T07:17:17.628Z,2.80
2019-02-03T07:19:43.766Z,2.80
2019-02-03T07:22:09.994Z,2.90
2019-02-03T07:24:36.187Z,2.80
2019-02-03T07:27:03.178Z,2.80
2019-02-03T07:29:29.373Z,2.70
2019-02-03T07:31:55.501Z,2.70
2019-02-03T07:34:21.834Z,2.70
2019-02-03T07:36:47.956Z,2.70
2019-02-03T07:39:14.078Z,2.70
2019-02-03T07:41:40.450Z,2.60
2019-02-03T07:44:06.770Z,2.70
2019-02-03T07:46:33.396Z,2.70
2019-02-03T07:48:59.540Z,2.70
2019-02-03T07:51:25.970Z,2.60
2019-02-03T07:53:52.107Z,2.60
2019-02-03T07:56:18.353Z,2.60
2019-02-03T07:58:44.686Z,2.50
2019-02-03T08:01:11.040Z,2.60
2019-02-03T08:03:37.279Z,2.60
2019-02-03T08:06:03.785Z,2.60
2019-02-03T08:08:29.992Z,2.60
2019-02-03T08:10:56.437Z,2.60
2019-02-03T08:13:22.673Z,2.60
2019-02-03T08:15:48.856Z,2.60
2019-02-03T08:18:15.162Z,2.60
2019-02-03T08:20:41.350Z,2.70
2019-02-03T08:23:07.990Z,2.60
2019-02-03T08:25:34.337Z,2.60
2019-02-03T08:28:00.589Z,2.70
2019-02-03T08:30:31.154Z,2.70
2019-02-03T08:32:57.439Z,2.70
2019-02-03T08:35:23.634Z,2.60
2019-02-03T08:37:49.762Z,2.70
2019-02-03T08:40:23.329Z,2.70
2019-02-03T08:42:49.516Z,2.70
2019-02-03T08:45:18.274Z,2.70
2019-02-03T08:47:45.466Z,2.60
2019-02-03T08:50:15.017Z,2.60
2019-02-03T08:52:41.567Z,2.60
2019-02-03T08:55:08.979Z,2.70
2019-02-03T08:57:35.055Z,2.80
2019-02-03T09:00:01.311Z,2.80
2019-02-03T09:02:27.477Z,2.80
2019-02-03T09:04:53.601Z,2.80
2019-02-03T09:07:19.715Z,2.80
2019-02-03T09:09:45.905Z,2.70
2019-02-03T09:12:12.135Z,2.70
2019-02-03T09:14:38.614Z,2.60
2019-02-03T09:17:04.832Z,2.50
2019-02-03T09:19:31.062Z,2.60
2019-02-03T09:21:57.246Z,2.60
2019-02-03T09:24:23.389Z,2.60
2019-02-03T09:26:49.561Z,2.60
2019-02-03T09:29:15.732Z,2.60
2019-02-03T09:31:42.390Z,2.60
2019-02-03T09:34:08.573Z,2.60
2019-02-03T09:36:34.676Z,2.50
2019-02-03T09:39:00.799Z,2.40
2019-02-03T09:41:27.007Z,2.40
2019-02-03T09:43:53.255Z,2.40
2019-02-03T09:46:19.708Z,2.40
2019-02-03T09:48:45.796Z,2.30
2019-02-03T09:51:12.305Z,2.30
2019-02-03T09:53:38.604Z,2.30
2019-02-03T09:56:05.003Z,2.20
2019-02-03T09:58:31.145Z,2.30
2019-02-03T10:00:57.354Z,2.40
2019-02-03T10:03:23.589Z,2.30
2019-02-03T10:05:49.776Z,2.20
2019-02-03T10:08:16.237Z,2.30
2019-02-03T10:10:42.596Z,2.30
2019-02-03T10:13:08.976Z,2.30
2019-02-03T10:15:35.382Z,2.30
2019-02-03T10:18:01.980Z,2.20
2019-02-03T10:20:28.316Z,2.10
2019-02-03T10:22:54.692Z,2.10
2019-02-03T10:25:24.247Z,2.10
2019-02-03T10:27:50.569Z,2.00
2019-02-03T10:30:19.104Z,2.20
2019-02-03T10:32:45.701Z,2.20
2019-02-03T10:35:23.472Z,2.30
2019-02-03T10:37:46.382Z,2.30
2019-02-03T10:40:18.826Z,2.20
2019-02-03T10:42:45.774Z,2.10
2019-02-03T10:45:15.166Z,2.10
2019-02-03T10:47:41.512Z,2.20
2019-02-03T10:50:13.848Z,2.10
2019-02-03T10:52:40.306Z,2.20
2019-02-03T10:55:07.716Z,2.30
2019-02-03T10:57:35.126Z,2.30
2019-02-03T11:00:03.358Z,2.20
2019-02-03T11:02:29.542Z,2.10
2019-02-03T11:04:55.671Z,2.00
2019-02-03T11:07:21.868Z,1.90
2019-02-03T11:09:47.952Z,1.90
2019-02-03T11:12:14.196Z,2.00
2019-02-03T11:14:40.404Z,2.10
2019-02-03T11:17:06.797Z,2.10
2019-02-03T11:19:33.082Z,2.00
2019-02-03T11:21:59.240Z,2.00
2019-02-03T11:24:25.470Z,1.90
2019-02-03T11:26:51.665Z,1.90
2019-02-03T11:29:17.893Z,2.00
2019-02-03T11:31:44.085Z,1.90
2019-02-03T11:34:10.407Z,1.90
2019-02-03T11:36:36.669Z,1.90
2019-02-03T11:39:05.437Z,2.00
2019-02-03T11:41:31.657Z,2.00
2019-02-03T11:43:57.898Z,1.90
2019-02-03T11:46:24.060Z,1.90
2019-02-03T11:48:50.193Z,1.90
2019-02-03T11:51:16.382Z,1.70
2019-02-03T11:53:42.674Z,1.90
2019-02-03T11:56:09.174Z,1.90
2019-02-03T11:58:35.473Z,2.00
2019-02-03T12:01:02.295Z,2.10
2019-02-03T12:03:28.456Z,2.00
2019-02-03T12:05:54.856Z,2.00
2019-02-03T12:08:21.159Z,2.00
2019-02-03T12:10:47.409Z,2.10
2019-02-03T12:13:14.135Z,2.10
2019-02-03T12:15:40.434Z,2.10
2019-02-03T12:18:06.682Z,2.10
2019-02-03T12:20:33.320Z,2.00
2019-02-03T12:22:59.623Z,2.00
2019-02-03T12:25:32.037Z,2.00
2019-02-03T12:27:58.319Z,2.10
2019-02-03T12:30:28.367Z,2.10
2019-02-03T12:32:54.789Z,2.10
2019-02-03T12:35:21.185Z,2.20
2019-02-03T12:37:47.297Z,2.20
2019-02-03T12:40:19.949Z,2.20
2019-02-03T12:42:46.179Z,2.40
2019-02-03T12:45:17.661Z,2.40
2019-02-03T12:47:44.329Z,2.30
2019-02-03T12:50:15.913Z,2.40
2019-02-03T12:52:42.249Z,2.40
2019-02-03T12:55:10.959Z,2.50
2019-02-03T12:57:37.155Z,2.40
2019-02-03T13:00:13.522Z,2.30
2019-02-03T13:02:39.825Z,2.10
2019-02-03T13:05:09.134Z,2.30
2019-02-03T13:07:35.531Z,2.20
2019-02-03T13:10:16.145Z,2.30
2019-02-03T13:12:35.913Z,2.30
2019-02-03T13:15:05.325Z,2.10
2019-02-03T13:17:31.403Z,2.10
2019-02-03T13:19:57.670Z,2.10
2019-02-03T13:22:23.857Z,2.10
2019-02-03T13:24:50.099Z,2.10
2019-02-03T13:27:16.432Z,2.10
2019-02-03T13:29:42.783Z,2.10
2019-02-03T13:32:10.732Z,2.20
2019-02-03T13:34:37.348Z,2.20
2019-02-03T13:37:03.631Z,2.20
2019-02-03T13:39:29.935Z,2.20
2019-02-03T13:41:56.148Z,2.20
2019-02-03T13:44:22.364Z,2.30
2019-02-03T13:46:48.671Z,2.30
2019-02-03T13:49:14.763Z,2.20
2019-02-03T13:51:41.107Z,2.20
2019-02-03T13:54:07.376Z,2.20
2019-02-03T13:56:33.595Z,2.10
2019-02-03T13:58:59.771Z,2.10
2019-02-03T14:01:26.008Z,2.10
2019-02-03T14:03:52.239Z,2.20
2019-02-03T14:06:18.479Z,2.20
2019-02-03T14:08:44.904Z,2.30
2019-02-03T14:11:11.263Z,2.30
2019-02-03T14:13:37.590Z,2.30
2019-02-03T14:16:04.620Z,2.30
2019-02-03T14:18:30.826Z,2.30
2019-02-03T14:20:57.576Z,2.40
2019-02-03T14:23:24.464Z,2.20
2019-02-03T14:25:50.554Z,2.20
2019-02-03T14:28:16.784Z,2.30
2019-02-03T14:30:43.036Z,2.20
2019-02-03T14:33:09.440Z,2.20
2019-02-03T14:35:35.833Z,2.30
2019-02-03T14:38:04.792Z,2.40
2019-02-03T14:40:31.232Z,2.50
2019-02-03T14:43:01.796Z,2.20
2019-02-03T14:45:26.486Z,2.30
2019-02-03T14:47:52.877Z,2.30
2019-02-03T14:50:23.253Z,2.30
2019-02-03T14:52:52.610Z,2.40
2019-02-03T14:55:27.316Z,2.40
2019-02-03T14:57:53.484Z,2.40
2019-02-03T15:00:25.678Z,2.30
2019-02-03T15:02:52.052Z,2.20
2019-02-03T15:05:20.191Z,2.10
2019-02-03T15:07:46.508Z,2.10
2019-02-03T15:10:13.927Z,2.10
2019-02-03T15:12:40.052Z,2.10
2019-02-03T15:15:18.230Z,2.10
2019-02-03T15:17:44.591Z,2.20
2019-02-03T15:20:14.687Z,2.20
2019-02-03T15:22:40.932Z,2.10
2019-02-03T15:25:07.402Z,2.10
2019-02-03T15:27:33.983Z,2.00
2019-02-03T15:30:00.327Z,2.20
2019-02-03T15:32:26.516Z,2.20
2019-02-03T15:34:52.728Z,2.20
2019-02-03T15:37:19.129Z,2.10
2019-02-03T15:39:45.258Z,2.00
2019-02-03T15:42:11.605Z,2.10
2019-02-03T15:44:37.784Z,1.90
2019-02-03T15:47:04.553Z,1.90
2019-02-03T15:49:30.731Z,1.90
2019-02-03T15:51:56.890Z,2.00
2019-02-03T15:54:23.466Z,2.00
2019-02-03T15:56:49.652Z,2.00
2019-02-03T15:59:15.759Z,2.00
2019-02-03T16:01:41.967Z,1.90
2019-02-03T16:04:08.106Z,1.80
2019-02-03T16:06:34.339Z,1.70
2019-02-03T16:09:00.590Z,1.70
2019-02-03T16:11:27.029Z,1.80
2019-02-03T16:13:53.323Z,1.80
2019-02-03T16:16:19.450Z,1.80
2019-02-03T16:18:45.627Z,1.80
2019-02-03T16:21:11.796Z,1.80
2019-02-03T16:23:38.008Z,1.80
2019-02-03T16:26:04.354Z,1.70
2019-02-03T16:28:30.586Z,1.70
2019-02-03T16:30:56.933Z,1.60
2019-02-03T16:33:23.342Z,1.60
2019-02-03T16:35:49.609Z,1.60
2019-02-03T16:38:22.919Z,1.60
2019-02-03T16:40:43.978Z,1.70
2019-02-03T16:43:10.255Z,1.70
2019-02-03T16:45:36.519Z,1.60
2019-02-03T16:48:04.357Z,1.70
2019-02-03T16:50:31.661Z,1.60
2019-02-03T16:53:00.476Z,1.70
2019-02-03T16:55:27.115Z,1.60
2019-02-03T16:57:53.517Z,1.70
2019-02-03T17:00:24.625Z,1.80
2019-02-03T17:02:51.248Z,1.60
2019-02-03T17:05:25.874Z,1.60
2019-02-03T17:07:48.733Z,1.60
2019-02-03T17:10:17.607Z,1.50
2019-02-03T17:12:44.434Z,1.50
2019-02-03T17:15:20.743Z,1.50
2019-02-03T17:17:46.944Z,1.50
2019-02-03T17:20:13.843Z,1.50
2019-02-03T17:22:40.060Z,1.50
2019-02-03T17:25:17.145Z,1.70
2019-02-03T17:27:43.305Z,1.60
2019-02-03T17:30:12.718Z,1.50
2019-02-03T17:32:38.832Z,1.40
2019-02-03T17:35:07.459Z,1.50
2019-02-03T17:37:33.543Z,1.50
2019-02-03T17:39:59.849Z,1.60
2019-02-03T17:42:26.135Z,1.60
2019-02-03T17:44:52.328Z,1.70
2019-02-03T17:47:18.560Z,1.70
2019-02-03T17:49:44.785Z,1.80
2019-02-03T17:52:11.491Z,1.70
2019-02-03T17:54:37.866Z,1.80
2019-02-03T17:57:04.484Z,1.70
2019-02-03T17:59:30.619Z,1.80
2019-02-03T18:01:56.721Z,1.90
2019-02-03T18:04:23.018Z,1.80
2019-02-03T18:06:49.335Z,1.70
2019-02-03T18:09:15.530Z,1.70
2019-02-03T18:11:41.932Z,1.70
2019-02-03T18:14:08.017Z,1.70
2019-02-03T18:16:34.233Z,1.70
2019-02-03T18:19:00.323Z,1.60
2019-02-03T18:21:27.239Z,1.60
2019-02-03T18:23:53.377Z,1.60
2019-02-03T18:26:19.664Z,1.70
2019-02-03T18:28:46.667Z,1.70
2019-02-03T18:31:12.787Z,1.70
2019-02-03T18:33:39.961Z,1.60
2019-02-03T18:36:06.312Z,1.60
2019-02-03T18:38:32.498Z,1.60
2019-02-03T18:40:58.583Z,1.70
2019-02-03T18:43:24.773Z,1.70
2019-02-03T18:45:50.968Z,1.70
2019-02-03T18:48:17.446Z,1.80
2019-02-03T18:50:43.623Z,1.90
2019-02-03T18:53:10.095Z,1.90
2019-02-03T18:55:42.386Z,1.80
2019-02-03T18:58:08.861Z,1.90
2019-02-03T19:00:36.570Z,1.90
2019-02-03T19:03:04.302Z,1.80
2019-02-03T19:05:33.625Z,1.80
2019-02-03T19:08:00.222Z,1.80
2019-02-03T19:10:27.399Z,1.70
2019-02-03T19:12:53.558Z,1.80
2019-02-03T19:15:21.284Z,1.90
2019-02-03T19:17:47.750Z,1.90
2019-02-03T19:20:26.724Z,1.90
2019-02-03T19:22:53.067Z,1.80
2019-02-03T19:25:19.629Z,1.80
2019-02-03T19:27:46.352Z,1.80
2019-02-03T19:30:20.469Z,1.80
2019-02-03T19:32:47.356Z,1.80
2019-02-03T19:35:15.946Z,1.80
2019-02-03T19:37:42.328Z,1.90
2019-02-03T19:40:11.559Z,1.80
2019-02-03T19:42:37.970Z,1.80
2019-02-03T19:45:07.818Z,1.80
2019-02-03T19:47:34.091Z,1.80
2019-02-03T19:50:00.816Z,1.80
2019-02-03T19:52:27.236Z,1.80
2019-02-03T19:54:53.540Z,1.80
2019-02-03T19:57:19.722Z,1.90
2019-02-03T19:59:47.072Z,1.90
2019-02-03T20:02:13.535Z,1.90
2019-02-03T20:04:39.760Z,1.90
2019-02-03T20:07:06.386Z,1.80
2019-02-03T20:09:32.611Z,1.90
2019-02-03T20:11:58.930Z,1.90
2019-02-03T20:14:25.100Z,1.80
2019-02-03T20:16:51.297Z,1.80
2019-02-03T20:19:17.460Z,1.90
2019-02-03T20:21:43.570Z,1.80
2019-02-03T20:24:09.978Z,1.90
2019-02-03T20:26:36.275Z,1.90
2019-02-03T20:29:02.714Z,1.90
2019-02-03T20:31:29.016Z,2.00
2019-02-03T20:33:55.340Z,2.00
2019-02-03T20:36:21.586Z,2.00
2019-02-03T20:38:47.775Z,1.90
2019-02-03T20:41:13.946Z,1.90
2019-02-03T20:43:40.106Z,1.90
2019-02-03T20:46:06.440Z,1.90
2019-02-03T20:48:32.558Z,2.00
2019-02-03T20:50:58.694Z,2.10
2019-02-03T20:53:24.932Z,2.00
2019-02-03T20:55:51.171Z,2.00
2019-02-03T20:58:17.423Z,1.90
2019-02-03T21:00:43.587Z,2.00
2019-02-03T21:03:09.983Z,2.00
2019-02-03T21:05:36.370Z,2.00
2019-02-03T21:08:03.463Z,1.90
2019-02-03T21:10:29.628Z,2.00
2019-02-03T21:12:56.909Z,2.00
2019-02-03T21:15:33.493Z,2.00
2019-02-03T21:17:55.656Z,2.00
2019-02-03T21:20:24.625Z,2.10
2019-02-03T21:22:51.104Z,2.10
2019-02-03T21:25:18.706Z,2.10
2019-02-03T21:27:45.290Z,2.00
2019-02-03T21:30:22.575Z,2.10
2019-02-03T21:32:49.174Z,2.10
2019-02-03T21:35:15.818Z,2.00
2019-02-03T21:37:41.924Z,2.00
2019-02-03T21:40:20.657Z,1.90
2019-02-03T21:42:46.793Z,2.00
2019-02-03T21:45:13.468Z,2.10
2019-02-03T21:47:39.699Z,2.10
2019-02-03T21:50:10.231Z,2.00
2019-02-03T21:52:36.531Z,1.90
2019-02-03T21:55:05.222Z,1.90
2019-02-03T21:57:31.358Z,1.90
2019-02-03T21:59:57.611Z,2.00
2019-02-03T22:02:23.747Z,2.00
2019-02-03T22:04:49.964Z,1.90
2019-02-03T22:07:16.543Z,1.90
2019-02-03T22:09:42.659Z,2.00
2019-02-03T22:12:08.748Z,2.00
2019-02-03T22:14:34.903Z,2.00
2019-02-03T22:17:01.093Z,1.90
2019-02-03T22:19:27.288Z,1.90
2019-02-03T22:21:53.417Z,1.80
2019-02-03T22:24:19.557Z,1.80
2019-02-03T22:26:45.734Z,1.80
2019-02-03T22:29:11.868Z,1.80
2019-02-03T22:31:38.098Z,1.70
2019-02-03T22:34:04.386Z,1.70
2019-02-03T22:36:30.546Z,1.70
2019-02-03T22:38:56.714Z,1.80
2019-02-03T22:41:23.178Z,1.90
2019-02-03T22:43:49.610Z,1.90
2019-02-03T22:46:15.796Z,1.90
2019-02-03T22:48:41.914Z,1.90
2019-02-03T22:51:08.267Z,1.90
2019-02-03T22:53:34.424Z,1.90
2019-02-03T22:56:00.574Z,1.80
2019-02-03T22:58:26.754Z,1.70
2019-02-03T23:00:57.179Z,1.70
2019-02-03T23:03:32.759Z,1.70
2019-02-03T23:05:58.959Z,1.70
2019-02-03T23:08:25.091Z,1.70
2019-02-03T23:10:51.424Z,1.70
2019-02-03T23:13:17.620Z,1.70
2019-02-03T23:15:44.305Z,1.70
2019-02-03T23:18:10.533Z,1.70
2019-02-03T23:20:36.599Z,1.60
2019-02-03T23:23:03.233Z,1.60
2019-02-03T23:25:29.511Z,1.70
2019-02-03T23:27:55.752Z,1.70
2019-02-03T23:30:22.387Z,1.80
2019-02-03T23:32:48.615Z,1.70
2019-02-03T23:35:14.984Z,1.70
2019-02-03T23:37:41.133Z,1.70
2019-02-03T23:40:10.722Z,1.70
2019-02-03T23:42:37.046Z,1.70
2019-02-03T23:45:06.687Z,1.70
2019-02-03T23:47:32.905Z,1.70
2019-02-03T23:49:59.137Z,1.70
2019-02-03T23:52:25.760Z,1.80
2019-02-03T23:54:51.937Z,1.70
2019-02-03T23:57:18.026Z,1.80
2019-02-03T23:59:44.145Z,1.70
